PAJC

Details ICAO PAJC
Name Chignik
Region USA (Alaska)
Timezone America/Anchorage (UTC-9.0)
Plans Departing 5
Arriving 5
Stats Elevation 50 ft / 15 m (AMSL)
Location 56.311444° -158.373980°
Runways 1
Magnetic Variation 12.578° E
Sunrise 2017-12-14 19:01:50 UTC / 2017-12-14 10:01:50 Local
Sunset 2017-12-15 01:57:44 UTC / 2017-12-14 16:57:44 Local
Advertisement - Login to hide

Runways

ID Width Length Bearing (true) Bearing (mag) Surface Threshold Offset Overrun Length
02 60 ft / 18 m 2,602 ft / 793 m 39.00° 26.42° Gravel 0 ft / 0 m 0 ft / 0 m
20 60 ft / 18 m 2,602 ft / 793 m 219.00° 206.42° Gravel 0 ft / 0 m 0 ft / 0 m

Map

Weather


0- 5 10 15 20 25 30 35+ Temperature / ° C

Clouds and Precipitation
Forecast for 2017-12-15 00:00 UTC. Updated 2 hours ago

Ground ~20,000 ft ~40,000 ft Winds

METAR

PAJC 142042Z AUTO 00000KT 10SM SCT026 BKN032 BKN100 02/01 A2959 RMK AO2 FZRANO

TAF

Not found
Warning: Do not use this data for real-world aviation or navigation. No guarantee of current accuracy is given.